createdAt,value
2023-02-22T00:00:59.945Z,18.70
2023-02-22T00:02:12.952Z,18.70
2023-02-22T00:03:24.793Z,18.70
2023-02-22T00:04:27.953Z,18.70
2023-02-22T00:05:31.523Z,18.80
2023-02-22T00:06:34.316Z,18.80
2023-02-22T00:07:36.571Z,18.80
2023-02-22T00:08:38.900Z,18.70
2023-02-22T00:09:41.310Z,18.70
2023-02-22T00:10:44.396Z,18.80
2023-02-22T00:11:48.715Z,18.70
2023-02-22T00:12:52.976Z,18.70
2023-02-22T00:13:58.322Z,18.70
2023-02-22T00:15:00.647Z,18.70
2023-02-22T00:16:03.137Z,18.70
2023-02-22T00:17:05.505Z,18.80
2023-02-22T00:18:12.583Z,18.70
2023-02-22T00:19:14.910Z,18.70
2023-02-22T00:20:20.184Z,18.70
2023-02-22T00:21:22.914Z,18.70
2023-02-22T00:22:25.217Z,18.70
2023-02-22T00:23:30.177Z,18.70
2023-02-22T00:24:32.954Z,18.60
2023-02-22T00:25:36.284Z,18.60
2023-02-22T00:26:39.083Z,18.60
2023-02-22T00:27:41.427Z,18.60
2023-02-22T00:28:45.206Z,18.60
2023-02-22T00:29:48.635Z,18.60
2023-02-22T00:30:52.363Z,18.60
2023-02-22T00:31:56.685Z,18.60
2023-02-22T00:32:59.275Z,18.60
2023-02-22T00:34:01.951Z,18.60
2023-02-22T00:35:08.195Z,18.60
2023-02-22T00:36:12.498Z,18.60
2023-02-22T00:37:14.819Z,18.60
2023-02-22T00:38:19.450Z,18.50
2023-02-22T00:39:21.965Z,18.60
2023-02-22T00:40:27.173Z,18.50
2023-02-22T00:41:29.555Z,18.50
2023-02-22T00:42:31.856Z,18.50
2023-02-22T00:43:34.636Z,18.50
2023-02-22T00:44:36.924Z,18.50
2023-02-22T00:45:40.948Z,18.50
2023-02-22T00:46:43.301Z,18.50
2023-02-22T00:47:45.685Z,18.50
2023-02-22T00:48:50.453Z,18.50
2023-02-22T00:49:53.375Z,18.50
2023-02-22T00:50:55.658Z,18.50
2023-02-22T00:51:58.675Z,18.50
2023-02-22T00:53:03.745Z,18.50
2023-02-22T00:54:06.171Z,18.50
2023-02-22T00:55:11.095Z,18.50
2023-02-22T00:56:13.465Z,18.50
2023-02-22T00:57:17.666Z,18.50
2023-02-22T00:58:22.231Z,18.50
2023-02-22T00:59:25.247Z,18.50
2023-02-22T01:00:39.703Z,18.50
2023-02-22T01:01:43.086Z,18.50
2023-02-22T01:02:46.253Z,18.50
2023-02-22T01:03:49.257Z,18.50
2023-02-22T01:04:52.104Z,18.40
2023-02-22T01:05:54.590Z,18.40
2023-02-22T01:06:57.009Z,18.50
2023-02-22T01:08:03.346Z,18.40
2023-02-22T01:09:07.735Z,18.40
2023-02-22T01:10:12.005Z,18.50
2023-02-22T01:11:16.506Z,18.50
2023-02-22T01:12:21.053Z,18.40
2023-02-22T01:13:24.007Z,18.40
2023-02-22T01:14:28.841Z,18.40
2023-02-22T01:15:31.588Z,18.40
2023-02-22T01:16:35.325Z,18.40
2023-02-22T01:17:39.459Z,18.40
2023-02-22T01:18:41.767Z,18.40
2023-02-22T01:19:44.100Z,18.40
2023-02-22T01:20:47.943Z,18.40
2023-02-22T01:21:51.323Z,18.40
2023-02-22T01:22:55.416Z,18.40
2023-02-22T01:23:58.212Z,18.40
2023-02-22T01:25:01.750Z,18.40
2023-02-22T01:26:06.007Z,18.40
2023-02-22T01:27:08.598Z,18.40
2023-02-22T01:28:12.824Z,18.40
2023-02-22T01:29:17.265Z,18.40
2023-02-22T01:30:25.383Z,18.40
2023-02-22T01:31:27.851Z,18.40
2023-02-22T01:32:30.622Z,18.40
2023-02-22T01:33:34.128Z,18.40
2023-02-22T01:34:36.488Z,18.40
2023-02-22T01:35:42.011Z,18.40
2023-02-22T01:36:44.719Z,18.40
2023-02-22T01:37:47.028Z,18.40
2023-02-22T01:38:49.335Z,18.40
2023-02-22T01:39:51.596Z,18.40
2023-02-22T01:40:53.957Z,18.40
2023-02-22T01:41:56.346Z,18.40
2023-02-22T01:43:01.545Z,18.40
2023-02-22T01:44:21.039Z,18.40
2023-02-22T01:45:34.953Z,18.40
2023-02-22T01:46:37.604Z,18.30
2023-02-22T01:47:39.914Z,18.30
2023-02-22T01:48:47.485Z,18.30
2023-02-22T01:49:51.877Z,18.30
2023-02-22T01:51:03.386Z,18.30
2023-02-22T01:52:10.092Z,18.30
2023-02-22T01:53:16.853Z,18.30
2023-02-22T01:54:50.699Z,18.20
2023-02-22T01:55:54.959Z,18.30
2023-02-22T01:57:12.081Z,18.30
2023-02-22T01:58:18.915Z,18.30
2023-02-22T01:59:22.605Z,18.30
2023-02-22T02:00:27.802Z,18.20
2023-02-22T02:01:30.579Z,18.30
2023-02-22T02:02:32.989Z,18.30
2023-02-22T02:03:38.441Z,18.20
2023-02-22T02:04:42.749Z,18.20
2023-02-22T02:05:45.754Z,18.20
2023-02-22T02:06:48.664Z,18.20
2023-02-22T02:07:51.684Z,18.20
2023-02-22T02:09:14.564Z,18.20
2023-02-22T02:10:16.906Z,18.20
2023-02-22T02:11:25.539Z,18.20
2023-02-22T02:12:31.004Z,18.20
2023-02-22T02:13:34.104Z,18.20
2023-02-22T02:14:40.288Z,17.70
2023-02-22T02:15:42.663Z,17.10
2023-02-22T02:16:48.589Z,17.10
2023-02-22T02:17:53.793Z,17.10
2023-02-22T02:18:56.140Z,17.20
2023-02-22T02:20:25.208Z,17.10
2023-02-22T02:22:02.573Z,17.10
2023-02-22T02:23:30.813Z,17.10
2023-02-22T02:25:21.198Z,17.00
2023-02-22T02:26:32.423Z,16.90
2023-02-22T02:28:02.718Z,16.90
2023-02-22T02:29:26.554Z,16.90
2023-02-22T02:31:06.231Z,16.70
2023-02-22T02:32:30.387Z,16.20
2023-02-22T02:33:53.752Z,15.90
2023-02-22T02:35:25.613Z,15.60
2023-02-22T02:36:34.133Z,15.50
2023-02-22T02:37:44.788Z,15.30
2023-02-22T02:39:08.023Z,15.10
2023-02-22T02:40:36.653Z,15.00
2023-02-22T02:41:50.680Z,14.80
2023-02-22T02:43:26.374Z,14.70
2023-02-22T02:44:40.904Z,14.60
2023-02-22T02:45:55.040Z,14.50
2023-02-22T02:47:01.287Z,14.50
2023-02-22T02:48:09.813Z,14.50
2023-02-22T02:49:18.942Z,14.50
2023-02-22T02:50:29.381Z,14.50
2023-02-22T02:51:37.125Z,14.50
2023-02-22T02:52:41.045Z,14.40
2023-02-22T02:53:46.298Z,14.40
2023-02-22T02:54:50.135Z,14.30
2023-02-22T02:55:52.411Z,14.30
2023-02-22T02:56:57.021Z,14.50
2023-02-22T02:58:00.737Z,14.90
2023-02-22T02:59:03.444Z,15.40
2023-02-22T03:00:22.299Z,15.80
2023-02-22T03:01:38.041Z,16.10
2023-02-22T03:02:51.881Z,16.50
2023-02-22T03:04:10.118Z,16.70
2023-02-22T03:05:41.522Z,16.90
2023-02-22T03:07:29.307Z,17.10
2023-02-22T03:08:55.732Z,17.40
2023-02-22T03:10:31.433Z,16.80
2023-02-22T03:11:59.678Z,16.10
2023-02-22T03:13:29.003Z,16.20
2023-02-22T03:14:40.491Z,16.60
2023-02-22T03:15:51.656Z,16.90
2023-02-22T03:16:59.668Z,17.10
2023-02-22T03:18:08.844Z,17.30
2023-02-22T03:19:13.707Z,17.40
2023-02-22T03:20:31.662Z,17.60
2023-02-22T03:21:44.519Z,17.70
2023-02-22T03:22:53.161Z,17.80
2023-02-22T03:24:34.547Z,17.90
2023-02-22T03:26:12.035Z,18.00
2023-02-22T03:27:23.694Z,18.10
2023-02-22T03:28:29.980Z,18.30
2023-02-22T03:29:35.505Z,18.30
2023-02-22T03:30:55.742Z,18.40
2023-02-22T03:32:01.273Z,18.40
2023-02-22T03:33:20.360Z,18.50
2023-02-22T03:34:31.113Z,18.50
2023-02-22T03:35:38.562Z,18.50
2023-02-22T03:36:48.173Z,18.60
2023-02-22T03:37:55.200Z,18.60
2023-02-22T03:39:00.981Z,18.60
2023-02-22T03:40:16.598Z,18.70
2023-02-22T03:41:25.217Z,18.70
2023-02-22T03:42:37.586Z,18.70
2023-02-22T03:43:48.213Z,18.80
2023-02-22T03:44:54.140Z,18.80
2023-02-22T03:45:58.021Z,18.80
2023-02-22T03:47:06.576Z,18.80
2023-02-22T03:48:20.682Z,18.80
2023-02-22T03:49:37.602Z,18.90
2023-02-22T03:50:41.652Z,18.90
2023-02-22T03:51:44.605Z,18.90
2023-02-22T03:52:47.507Z,18.90
2023-02-22T03:53:57.330Z,18.90
2023-02-22T03:55:10.967Z,19.00
2023-02-22T03:56:20.187Z,19.00
2023-02-22T03:57:31.733Z,19.00
2023-02-22T03:58:43.864Z,19.00
2023-02-22T03:59:46.684Z,19.00
2023-02-22T04:00:52.979Z,18.80
2023-02-22T04:01:56.770Z,18.00
2023-02-22T04:02:59.652Z,17.80
2023-02-22T04:04:02.317Z,17.90
2023-02-22T04:05:05.598Z,18.10
2023-02-22T04:06:09.097Z,18.30
2023-02-22T04:07:11.686Z,18.40
2023-02-22T04:08:14.600Z,18.50
2023-02-22T04:09:18.038Z,18.60
2023-02-22T04:10:20.578Z,18.70
2023-02-22T04:11:23.502Z,18.70
2023-02-22T04:12:25.891Z,18.70
2023-02-22T04:13:33.396Z,18.80
2023-02-22T04:14:35.894Z,18.90
2023-02-22T04:15:38.317Z,18.90
2023-02-22T04:16:43.646Z,18.90
2023-02-22T04:17:46.366Z,18.90
2023-02-22T04:18:50.255Z,19.00
2023-02-22T04:19:54.442Z,19.00
2023-02-22T04:20:58.718Z,19.00
2023-02-22T04:22:12.151Z,19.10
2023-02-22T04:23:14.921Z,19.10
2023-02-22T04:24:17.491Z,19.10
2023-02-22T04:25:21.451Z,19.10
2023-02-22T04:26:24.005Z,19.10
2023-02-22T04:27:30.353Z,19.20
2023-02-22T04:28:33.185Z,19.20
2023-02-22T04:29:45.804Z,19.20
2023-02-22T04:30:48.671Z,19.20
2023-02-22T04:31:53.272Z,19.20
2023-02-22T04:32:56.713Z,19.30
2023-02-22T04:33:59.423Z,19.30
2023-02-22T04:35:06.523Z,19.30
2023-02-22T04:36:10.679Z,19.30
2023-02-22T04:37:13.730Z,19.30
2023-02-22T04:38:16.033Z,19.30
2023-02-22T04:39:18.616Z,19.40
2023-02-22T04:40:21.204Z,19.40
2023-02-22T04:41:25.516Z,19.40
2023-02-22T04:42:28.595Z,19.40
2023-02-22T04:43:30.998Z,19.40
2023-02-22T04:44:40.830Z,19.40
2023-02-22T04:45:43.259Z,19.40
2023-02-22T04:46:46.722Z,19.40
2023-02-22T04:47:50.435Z,19.40
2023-02-22T04:48:54.047Z,19.40
2023-02-22T04:50:00.312Z,19.50
2023-02-22T04:51:02.771Z,19.50
2023-02-22T04:52:06.672Z,19.50
2023-02-22T04:53:11.809Z,19.50
2023-02-22T04:54:14.506Z,19.50
2023-02-22T04:55:19.997Z,19.50
2023-02-22T04:56:22.542Z,19.50
2023-02-22T04:57:24.908Z,19.50
2023-02-22T04:58:27.332Z,19.50
2023-02-22T04:59:29.587Z,19.60
2023-02-22T05:00:35.554Z,19.10
2023-02-22T05:01:39.271Z,18.50
2023-02-22T05:02:41.620Z,18.50
2023-02-22T05:03:44.467Z,18.60
2023-02-22T05:04:46.955Z,18.90
2023-02-22T05:05:52.212Z,19.00
2023-02-22T05:06:55.126Z,19.10
2023-02-22T05:07:57.589Z,19.20
2023-02-22T05:09:00.124Z,19.20
2023-02-22T05:10:02.871Z,19.30
2023-02-22T05:11:05.854Z,19.30
2023-02-22T05:12:08.271Z,19.40
2023-02-22T05:13:10.609Z,19.40
2023-02-22T05:14:13.127Z,19.40
2023-02-22T05:15:18.904Z,19.40
2023-02-22T05:16:21.644Z,19.50
2023-02-22T05:17:24.048Z,19.50
2023-02-22T05:18:26.322Z,19.50
2023-02-22T05:19:28.866Z,19.50
2023-02-22T05:20:34.257Z,19.50
2023-02-22T05:21:36.549Z,19.60
2023-02-22T05:22:38.880Z,19.60
2023-02-22T05:23:41.567Z,19.60
2023-02-22T05:24:43.937Z,19.70
2023-02-22T05:25:46.290Z,19.60
2023-02-22T05:26:51.159Z,18.80
2023-02-22T05:28:05.444Z,18.70
2023-02-22T05:29:07.761Z,18.80
2023-02-22T05:30:11.722Z,18.80
2023-02-22T05:31:14.191Z,18.80
2023-02-22T05:32:16.638Z,18.80
2023-02-22T05:33:19.185Z,18.80
2023-02-22T05:34:21.524Z,19.00
2023-02-22T05:35:24.121Z,19.10
2023-02-22T05:36:27.976Z,19.20
2023-02-22T05:37:30.290Z,19.20
2023-02-22T05:38:32.919Z,19.30
2023-02-22T05:39:35.167Z,19.40
2023-02-22T05:40:37.511Z,19.40
2023-02-22T05:41:39.808Z,19.50
2023-02-22T05:42:42.168Z,19.50
2023-02-22T05:43:44.588Z,19.60
2023-02-22T05:44:46.962Z,19.60
2023-02-22T05:45:49.235Z,19.60
2023-02-22T05:46:51.625Z,19.60
2023-02-22T05:47:54.949Z,19.70
2023-02-22T05:48:57.495Z,19.70
2023-02-22T05:49:59.875Z,19.70
2023-02-22T05:51:03.706Z,19.70
2023-02-22T05:52:06.019Z,19.70
2023-02-22T05:53:08.378Z,19.70
2023-02-22T05:54:10.696Z,19.70
2023-02-22T05:55:14.703Z,19.70
2023-02-22T05:56:30.480Z,19.80
2023-02-22T05:57:32.793Z,19.80
2023-02-22T05:58:35.087Z,19.80
2023-02-22T05:59:37.369Z,19.80
2023-02-22T06:00:39.757Z,19.80
2023-02-22T06:01:42.196Z,19.80
2023-02-22T06:02:44.832Z,19.90
2023-02-22T06:03:48.769Z,19.90
2023-02-22T06:04:51.349Z,19.90
2023-02-22T06:05:53.940Z,19.90
2023-02-22T06:06:56.279Z,19.90
2023-02-22T06:07:59.594Z,19.90
2023-02-22T06:09:01.960Z,19.90
2023-02-22T06:10:05.146Z,19.90
2023-02-22T06:11:09.641Z,19.90
2023-02-22T06:12:11.992Z,19.90
2023-02-22T06:13:14.383Z,19.90
2023-02-22T06:14:16.699Z,19.90
2023-02-22T06:15:21.230Z,19.90
2023-02-22T06:16:23.776Z,19.90
2023-02-22T06:17:26.230Z,19.90
2023-02-22T06:18:30.893Z,20.00
2023-02-22T06:19:33.212Z,20.00
2023-02-22T06:20:35.608Z,19.90
2023-02-22T06:21:37.931Z,19.90
2023-02-22T06:22:41.258Z,19.80
2023-02-22T06:23:43.985Z,19.70
2023-02-22T06:24:46.472Z,19.70
2023-02-22T06:25:49.292Z,19.60
2023-02-22T06:27:00.710Z,19.60
2023-02-22T06:28:04.147Z,19.70
2023-02-22T06:29:06.548Z,19.70
2023-02-22T06:30:13.300Z,19.80
2023-02-22T06:31:16.290Z,19.90
2023-02-22T06:32:18.804Z,19.90
2023-02-22T06:33:21.173Z,19.90
2023-02-22T06:34:23.501Z,19.90
2023-02-22T06:35:25.878Z,19.90
2023-02-22T06:36:28.379Z,19.90
2023-02-22T06:37:30.769Z,19.90
2023-02-22T06:38:33.260Z,20.00
2023-02-22T06:39:35.585Z,20.00
2023-02-22T06:40:37.901Z,20.00
2023-02-22T06:41:41.585Z,20.00
2023-02-22T06:42:43.922Z,20.00
2023-02-22T06:43:47.967Z,20.00
2023-02-22T06:44:51.794Z,20.00
2023-02-22T06:45:54.225Z,20.00
2023-02-22T06:46:56.698Z,20.10
2023-02-22T06:47:59.404Z,20.10
2023-02-22T06:49:01.788Z,20.10
2023-02-22T06:50:04.350Z,20.10
2023-02-22T06:51:08.674Z,20.10
2023-02-22T06:52:10.942Z,20.10
2023-02-22T06:53:13.298Z,20.10
2023-02-22T06:54:15.636Z,20.10
2023-02-22T06:55:26.771Z,20.10
2023-02-22T06:56:29.218Z,20.10
2023-02-22T06:57:31.576Z,20.10
2023-02-22T06:58:33.930Z,20.10
2023-02-22T06:59:36.318Z,20.20
2023-02-22T07:00:38.785Z,20.20
2023-02-22T07:01:42.332Z,20.20
2023-02-22T07:02:45.408Z,20.10
2023-02-22T07:03:49.794Z,20.10
2023-02-22T07:04:52.091Z,20.10
2023-02-22T07:05:55.354Z,20.20
2023-02-22T07:06:58.009Z,20.20
2023-02-22T07:08:06.933Z,20.20
2023-02-22T07:09:09.234Z,20.20
2023-02-22T07:10:27.546Z,20.20
2023-02-22T07:11:29.986Z,20.20
2023-02-22T07:12:32.612Z,20.20
2023-02-22T07:13:34.989Z,20.20
2023-02-22T07:14:37.299Z,20.20
2023-02-22T07:15:39.584Z,20.20
2023-02-22T07:16:41.927Z,20.20
2023-02-22T07:17:44.737Z,20.20
2023-02-22T07:18:47.488Z,20.20
2023-02-22T07:19:49.864Z,20.20
2023-02-22T07:20:52.214Z,20.20
2023-02-22T07:21:59.126Z,20.20
2023-02-22T07:23:01.791Z,20.20
2023-02-22T07:24:05.539Z,20.20
2023-02-22T07:25:12.657Z,20.20
2023-02-22T07:26:15.287Z,20.20
2023-02-22T07:27:17.759Z,20.20
2023-02-22T07:28:20.066Z,20.20
2023-02-22T07:29:22.561Z,20.30
2023-02-22T07:30:31.152Z,20.30
2023-02-22T07:31:39.773Z,20.30
2023-02-22T07:32:46.510Z,20.30
2023-02-22T07:33:49.613Z,20.30
2023-02-22T07:34:51.934Z,20.30
2023-02-22T07:35:54.257Z,20.30
2023-02-22T07:36:56.799Z,20.30
2023-02-22T07:37:59.348Z,20.30
2023-02-22T07:39:01.983Z,20.30
2023-02-22T07:40:04.673Z,20.30
2023-02-22T07:41:07.098Z,20.30
2023-02-22T07:42:09.925Z,20.30
2023-02-22T07:43:19.642Z,20.30
2023-02-22T07:44:22.086Z,20.30
2023-02-22T07:45:27.010Z,20.30
2023-02-22T07:46:29.761Z,20.30
2023-02-22T07:47:32.200Z,20.30
2023-02-22T07:48:34.633Z,20.30
2023-02-22T07:49:37.329Z,20.40
2023-02-22T07:50:40.644Z,20.30
2023-02-22T07:51:42.962Z,20.40
2023-02-22T07:52:50.710Z,20.40
2023-02-22T07:53:53.486Z,20.40
2023-02-22T07:54:55.813Z,20.30
2023-02-22T07:55:59.391Z,20.30
2023-02-22T07:57:03.359Z,20.40
2023-02-22T07:58:07.702Z,20.40
2023-02-22T07:59:10.062Z,20.40
2023-02-22T08:00:15.040Z,20.40
2023-02-22T08:01:17.664Z,20.40
2023-02-22T08:02:21.174Z,20.40
2023-02-22T08:03:26.252Z,20.40
2023-02-22T08:04:28.698Z,20.40
2023-02-22T08:05:32.253Z,20.40
2023-02-22T08:06:34.684Z,20.40
2023-02-22T08:07:37.861Z,20.40
2023-02-22T08:08:40.493Z,20.40
2023-02-22T08:09:42.839Z,20.40
2023-02-22T08:10:45.508Z,20.40
2023-02-22T08:11:47.855Z,20.40
2023-02-22T08:12:50.708Z,20.40
2023-02-22T08:13:53.081Z,20.40
2023-02-22T08:14:55.415Z,20.40
2023-02-22T08:15:57.807Z,20.50
2023-02-22T08:17:00.189Z,20.40
2023-02-22T08:18:04.969Z,20.50
2023-02-22T08:19:07.403Z,20.40
2023-02-22T08:20:10.274Z,20.50
2023-02-22T08:21:12.569Z,20.50
2023-02-22T08:22:14.899Z,20.40
2023-02-22T08:23:18.816Z,20.40
2023-02-22T08:24:21.274Z,20.40
2023-02-22T08:25:27.288Z,20.40
2023-02-22T08:26:29.688Z,20.50
2023-02-22T08:27:33.777Z,20.50
2023-02-22T08:28:36.220Z,20.50
2023-02-22T08:29:38.543Z,20.50
2023-02-22T08:30:44.496Z,20.50
2023-02-22T08:31:51.191Z,20.50
2023-02-22T08:32:53.886Z,20.50
2023-02-22T08:33:57.068Z,20.50
2023-02-22T08:34:59.462Z,20.50
2023-02-22T08:36:01.884Z,20.50
2023-02-22T08:37:04.341Z,20.50
2023-02-22T08:38:08.016Z,20.50
2023-02-22T08:39:10.620Z,20.50
2023-02-22T08:40:15.070Z,20.50
2023-02-22T08:41:17.972Z,20.50
2023-02-22T08:42:20.571Z,20.50
2023-02-22T08:43:23.508Z,20.50
2023-02-22T08:44:25.926Z,20.50
2023-02-22T08:45:28.933Z,20.50
2023-02-22T08:46:31.255Z,20.50
2023-02-22T08:47:34.274Z,20.50
2023-02-22T08:48:36.790Z,20.50
2023-02-22T08:49:39.073Z,20.50
2023-02-22T08:50:41.970Z,20.60
2023-02-22T08:51:44.493Z,20.50
2023-02-22T08:52:46.904Z,20.50
2023-02-22T08:53:49.292Z,20.50
2023-02-22T08:54:51.685Z,20.50
2023-02-22T08:55:54.130Z,20.50
2023-02-22T08:56:56.716Z,20.50
2023-02-22T08:58:01.451Z,20.60
2023-02-22T08:59:03.835Z,20.60
2023-02-22T09:00:06.870Z,20.60
2023-02-22T09:01:09.323Z,20.60
2023-02-22T09:02:21.000Z,20.60
2023-02-22T09:03:23.482Z,20.60
2023-02-22T09:04:25.859Z,20.50
2023-02-22T09:05:31.157Z,20.60
2023-02-22T09:06:33.815Z,20.60
2023-02-22T09:07:36.171Z,20.60
2023-02-22T09:08:38.518Z,20.60
2023-02-22T09:09:42.810Z,20.60
2023-02-22T09:10:45.420Z,20.60
2023-02-22T09:11:48.528Z,20.60
2023-02-22T09:12:57.667Z,20.60
2023-02-22T09:13:59.999Z,20.60
2023-02-22T09:15:02.382Z,20.60
2023-02-22T09:16:05.416Z,20.60
2023-02-22T09:17:07.725Z,20.60
2023-02-22T09:18:14.738Z,20.60
2023-02-22T09:19:17.239Z,20.60
2023-02-22T09:20:21.916Z,20.60
2023-02-22T09:21:24.313Z,20.60
2023-02-22T09:22:26.716Z,20.60
2023-02-22T09:23:29.750Z,20.60
2023-02-22T09:24:32.093Z,20.60
2023-02-22T09:25:34.396Z,20.60
2023-02-22T09:26:39.419Z,20.60
2023-02-22T09:27:43.538Z,20.60
2023-02-22T09:28:45.859Z,20.60
2023-02-22T09:29:48.899Z,20.60
2023-02-22T09:30:51.259Z,20.60
2023-02-22T09:31:55.327Z,20.60
2023-02-22T09:33:00.450Z,20.60
2023-02-22T09:34:06.392Z,20.60
2023-02-22T09:35:08.809Z,20.60
2023-02-22T09:36:11.097Z,20.70
2023-02-22T09:37:14.169Z,20.60
2023-02-22T09:38:26.086Z,20.60
2023-02-22T09:39:28.472Z,20.60
2023-02-22T09:40:32.820Z,20.70
2023-02-22T09:42:06.813Z,20.70
2023-02-22T09:43:31.180Z,20.70
2023-02-22T09:44:55.678Z,20.60
2023-02-22T09:46:23.388Z,20.60
2023-02-22T09:47:38.751Z,20.60
2023-02-22T09:48:57.727Z,20.60
2023-02-22T09:50:15.678Z,20.60
2023-02-22T09:51:20.572Z,20.60
2023-02-22T09:52:39.365Z,20.60
2023-02-22T09:53:46.034Z,20.60
2023-02-22T09:55:07.549Z,20.60
2023-02-22T09:56:17.986Z,20.60
2023-02-22T09:57:30.914Z,20.60
2023-02-22T09:58:35.497Z,20.70
2023-02-22T09:59:43.614Z,20.60
2023-02-22T10:00:47.748Z,20.70
2023-02-22T10:01:58.377Z,20.70
2023-02-22T10:03:08.388Z,20.60
2023-02-22T10:04:24.678Z,20.60
2023-02-22T10:05:37.798Z,20.70
2023-02-22T10:06:44.050Z,20.70
2023-02-22T10:07:59.275Z,20.70
2023-02-22T10:09:07.831Z,20.60
2023-02-22T10:10:19.347Z,20.70
2023-02-22T10:11:40.448Z,20.60
2023-02-22T10:12:58.882Z,20.60
2023-02-22T10:14:23.105Z,20.70
2023-02-22T10:15:41.028Z,20.70
2023-02-22T10:16:49.176Z,20.70
2023-02-22T10:18:20.791Z,20.70
2023-02-22T10:19:53.746Z,20.70
2023-02-22T10:21:24.453Z,20.70
2023-02-22T10:22:38.985Z,20.70
2023-02-22T10:23:59.063Z,20.70
2023-02-22T10:25:09.559Z,20.70
2023-02-22T10:26:15.001Z,20.70
2023-02-22T10:27:33.242Z,20.70
2023-02-22T10:28:42.210Z,20.70
2023-02-22T10:30:18.871Z,20.60
2023-02-22T10:31:31.152Z,20.60
2023-02-22T10:32:46.544Z,20.70
2023-02-22T10:33:55.582Z,20.70
2023-02-22T10:35:00.478Z,20.70
2023-02-22T10:36:03.219Z,20.70
2023-02-22T10:37:29.976Z,20.70
2023-02-22T10:38:34.710Z,20.60
2023-02-22T10:39:40.095Z,20.70
2023-02-22T10:40:54.845Z,20.70
2023-02-22T10:42:05.954Z,20.70
2023-02-22T10:43:11.546Z,20.70
2023-02-22T10:44:13.932Z,20.70
2023-02-22T10:45:29.991Z,20.70
2023-02-22T10:46:34.840Z,20.70
2023-02-22T10:47:37.711Z,20.70
2023-02-22T10:48:43.374Z,20.70
2023-02-22T10:49:56.261Z,20.60
2023-02-22T10:51:04.341Z,20.70
2023-02-22T10:52:23.632Z,20.60
2023-02-22T10:53:28.434Z,20.70
2023-02-22T10:54:36.281Z,20.70
2023-02-22T10:56:21.498Z,20.70
2023-02-22T10:57:28.074Z,20.70
2023-02-22T10:59:01.395Z,20.70
2023-02-22T11:00:26.290Z,20.70
2023-02-22T11:01:32.076Z,20.70
2023-02-22T11:02:35.920Z,20.70
2023-02-22T11:03:38.339Z,20.70
2023-02-22T11:04:52.834Z,20.70
2023-02-22T11:05:55.289Z,20.60
2023-02-22T11:07:00.656Z,20.60
2023-02-22T11:08:21.519Z,20.50
2023-02-22T11:09:24.031Z,20.50
2023-02-22T11:10:38.607Z,20.40
2023-02-22T11:11:45.271Z,20.40
2023-02-22T11:12:49.598Z,20.40
2023-02-22T11:13:56.308Z,20.30
2023-02-22T11:15:28.268Z,20.30
2023-02-22T11:16:33.301Z,20.30
2023-02-22T11:17:35.825Z,20.20
2023-02-22T11:18:38.221Z,20.20
2023-02-22T11:19:47.806Z,20.20
2023-02-22T11:21:00.321Z,20.20
2023-02-22T11:22:05.556Z,20.20
2023-02-22T11:23:08.332Z,20.10
2023-02-22T11:24:13.952Z,20.10
2023-02-22T11:25:24.837Z,20.10
2023-02-22T11:26:27.943Z,20.10
2023-02-22T11:27:41.276Z,20.00
2023-02-22T11:28:56.001Z,20.10
2023-02-22T11:30:17.855Z,20.10
2023-02-22T11:31:28.059Z,20.10
2023-02-22T11:32:30.521Z,20.10
2023-02-22T11:33:33.124Z,20.10
2023-02-22T11:34:39.438Z,20.10
2023-02-22T11:36:04.759Z,20.10
2023-02-22T11:37:25.831Z,20.10
2023-02-22T11:38:32.886Z,20.10
2023-02-22T11:39:35.472Z,20.10
2023-02-22T11:40:40.131Z,20.10
2023-02-22T11:41:42.622Z,20.10
2023-02-22T11:42:47.215Z,20.10
2023-02-22T11:43:50.919Z,20.10
2023-02-22T11:45:27.456Z,20.10
2023-02-22T11:46:34.929Z,20.00
2023-02-22T11:48:02.853Z,20.00
2023-02-22T11:49:11.376Z,20.00
2023-02-22T11:50:33.901Z,20.00
2023-02-22T11:51:50.481Z,20.00
2023-02-22T11:53:08.997Z,20.00
2023-02-22T11:54:42.167Z,20.00
2023-02-22T11:56:05.765Z,20.00
2023-02-22T11:57:22.185Z,20.00
2023-02-22T11:58:24.731Z,20.00
2023-02-22T11:59:45.647Z,20.00
2023-02-22T12:01:00.482Z,20.00
2023-02-22T12:02:05.740Z,20.00
2023-02-22T12:03:17.724Z,20.00
2023-02-22T12:04:47.794Z,20.00
2023-02-22T12:06:19.440Z,20.00
2023-02-22T12:07:39.899Z,20.00
2023-02-22T12:09:18.558Z,20.10
2023-02-22T12:10:26.482Z,20.20
2023-02-22T12:11:40.182Z,20.10
2023-02-22T12:12:52.427Z,20.10
2023-02-22T12:14:16.678Z,20.10
2023-02-22T12:15:42.473Z,20.20
2023-02-22T12:16:57.931Z,20.20
2023-02-22T12:18:14.002Z,20.20
2023-02-22T12:19:38.891Z,20.20
2023-02-22T12:20:56.667Z,20.30
2023-02-22T12:22:11.390Z,20.30
2023-02-22T12:23:30.627Z,20.30
2023-02-22T12:25:20.484Z,20.30
2023-02-22T12:26:30.879Z,20.40
2023-02-22T12:27:43.450Z,20.30
2023-02-22T12:29:01.490Z,20.10
2023-02-22T12:30:16.400Z,19.90
2023-02-22T12:31:47.314Z,19.80
2023-02-22T12:33:00.641Z,19.80
2023-02-22T12:34:30.930Z,19.70
2023-02-22T12:35:43.220Z,19.70
2023-02-22T12:36:52.992Z,19.60
2023-02-22T12:38:13.112Z,19.60
2023-02-22T12:39:28.453Z,19.60
2023-02-22T12:40:48.856Z,19.60
2023-02-22T12:41:56.193Z,19.50
2023-02-22T12:43:20.636Z,19.50
2023-02-22T12:44:30.306Z,19.50
2023-02-22T12:45:39.904Z,19.40
2023-02-22T12:46:48.229Z,19.30
2023-02-22T12:48:04.058Z,19.40
2023-02-22T12:49:24.055Z,19.40
2023-02-22T12:50:29.718Z,19.30
2023-02-22T12:51:38.657Z,19.40
2023-02-22T12:52:53.158Z,19.40
2023-02-22T12:54:14.884Z,19.40
2023-02-22T12:55:25.232Z,19.30
2023-02-22T12:56:39.615Z,19.30
2023-02-22T12:58:04.361Z,19.30
2023-02-22T12:59:14.633Z,19.30
2023-02-22T13:00:37.161Z,19.40
2023-02-22T13:01:44.312Z,19.40
2023-02-22T13:02:58.472Z,19.30
2023-02-22T13:04:08.618Z,19.30
2023-02-22T13:05:21.398Z,19.30
2023-02-22T13:06:59.718Z,19.30
2023-02-22T13:08:23.059Z,19.30
2023-02-22T13:09:56.973Z,19.40
2023-02-22T13:11:31.565Z,19.40
2023-02-22T13:12:57.408Z,19.40
2023-02-22T13:14:16.283Z,19.50
2023-02-22T13:15:36.240Z,19.50
2023-02-22T13:17:05.623Z,19.50
2023-02-22T13:18:27.278Z,19.50
2023-02-22T13:20:01.909Z,19.50
2023-02-22T13:21:21.212Z,19.50
2023-02-22T13:22:50.202Z,19.50
2023-02-22T13:24:13.544Z,19.40
2023-02-22T13:25:21.483Z,19.30
2023-02-22T13:26:31.586Z,19.10
2023-02-22T13:27:43.551Z,19.20
2023-02-22T13:29:09.685Z,19.20
2023-02-22T13:30:36.836Z,19.20
2023-02-22T13:32:02.662Z,19.40
2023-02-22T13:33:18.758Z,19.60
2023-02-22T13:34:41.871Z,19.70
2023-02-22T13:36:21.843Z,19.80
2023-02-22T13:37:39.383Z,20.00
2023-02-22T13:38:57.383Z,20.00
2023-02-22T13:40:35.128Z,20.10
2023-02-22T13:41:49.269Z,20.20
2023-02-22T13:43:20.703Z,20.20
2023-02-22T13:44:47.261Z,20.20
2023-02-22T13:46:05.233Z,20.20
2023-02-22T13:47:34.889Z,20.20
2023-02-22T13:49:16.558Z,20.20
2023-02-22T13:50:42.765Z,20.30
2023-02-22T13:51:56.654Z,20.30
2023-02-22T13:53:03.269Z,20.30
2023-02-22T13:54:19.049Z,20.30
2023-02-22T13:55:32.794Z,20.40
2023-02-22T13:56:36.036Z,20.30
2023-02-22T13:57:48.106Z,20.10
2023-02-22T13:58:53.225Z,20.00
2023-02-22T14:00:15.857Z,19.90
2023-02-22T14:01:43.395Z,19.70
2023-02-22T14:03:13.883Z,19.70
2023-02-22T14:04:27.260Z,19.70
2023-02-22T14:05:41.755Z,19.70
2023-02-22T14:06:45.772Z,19.70
2023-02-22T14:07:49.131Z,19.70
2023-02-22T14:08:51.508Z,19.60
2023-02-22T14:09:59.127Z,19.60
2023-02-22T14:11:02.264Z,19.60
2023-02-22T14:12:04.858Z,19.60
2023-02-22T14:13:07.932Z,19.60
2023-02-22T14:14:14.487Z,19.60
2023-02-22T14:15:29.283Z,19.70
2023-02-22T14:16:33.906Z,19.80
2023-02-22T14:17:40.803Z,19.90
2023-02-22T14:18:46.169Z,20.00
2023-02-22T14:20:19.636Z,20.00
2023-02-22T14:21:22.959Z,20.10
2023-02-22T14:22:29.743Z,20.10
2023-02-22T14:23:36.141Z,20.10
2023-02-22T14:24:47.675Z,20.10
2023-02-22T14:25:51.223Z,20.30
2023-02-22T14:27:03.535Z,20.30
2023-02-22T14:28:39.700Z,20.30
2023-02-22T14:30:00.562Z,20.30
2023-02-22T14:31:29.537Z,20.30
2023-02-22T14:32:36.081Z,20.30
2023-02-22T14:33:59.349Z,20.30
2023-02-22T14:35:09.581Z,20.30
2023-02-22T14:36:18.611Z,20.40
2023-02-22T14:37:28.623Z,20.40
2023-02-22T14:38:31.045Z,20.40
2023-02-22T14:39:51.237Z,20.40
2023-02-22T14:40:56.256Z,20.40
2023-02-22T14:42:04.124Z,20.40
2023-02-22T14:43:12.512Z,20.40
2023-02-22T14:44:20.944Z,20.40